createdAt,value
2024-03-02T00:01:24.030Z,39.78
2024-03-02T00:04:25.990Z,33.58
2024-03-02T00:07:27.671Z,31.80
2024-03-02T00:10:40.807Z,33.55
2024-03-02T00:13:42.656Z,38.95
2024-03-02T00:16:44.320Z,40.60
2024-03-02T00:19:46.455Z,35.40
2024-03-02T00:22:50.734Z,37.10
2024-03-02T00:25:55.792Z,32.92
2024-03-02T00:28:57.523Z,32.03
2024-03-02T00:31:59.627Z,34.15
2024-03-02T00:35:01.950Z,30.00
2024-03-02T00:38:07.502Z,31.55
2024-03-02T00:41:16.493Z,34.70
2024-03-02T00:44:21.532Z,31.48
2024-03-02T00:47:23.225Z,35.95
2024-03-02T00:50:30.734Z,30.52
2024-03-02T00:53:33.473Z,30.08
2024-03-02T00:56:35.347Z,32.38
2024-03-02T00:59:37.573Z,31.38
2024-03-02T01:02:39.212Z,37.17
2024-03-02T01:05:45.259Z,37.60
2024-03-02T01:08:47.377Z,35.50
2024-03-02T01:11:49.029Z,30.95
2024-03-02T01:14:51.620Z,36.65
2024-03-02T01:17:55.645Z,34.53
2024-03-02T01:20:58.525Z,30.27
2024-03-02T01:24:00.805Z,36.15
2024-03-02T01:27:02.593Z,35.95
2024-03-02T01:30:05.324Z,41.35
2024-03-02T01:33:07.366Z,38.53
2024-03-02T01:36:09.162Z,42.25
2024-03-02T01:39:10.846Z,39.17
2024-03-02T01:42:12.500Z,38.15
2024-03-02T01:45:15.034Z,44.53
2024-03-02T01:48:16.800Z,45.30
2024-03-02T01:51:19.821Z,40.20
2024-03-02T01:54:23.365Z,40.15
2024-03-02T01:57:26.056Z,41.17
2024-03-02T02:00:28.770Z,41.22
2024-03-02T02:03:30.568Z,39.78
2024-03-02T02:06:32.939Z,40.30
2024-03-02T02:09:35.243Z,36.45
2024-03-02T02:12:38.003Z,38.00
2024-03-02T02:15:40.307Z,38.08
2024-03-02T02:18:42.023Z,38.22
2024-03-02T02:21:44.401Z,39.72
2024-03-02T02:24:46.224Z,46.17
2024-03-02T02:27:47.882Z,48.83
2024-03-02T02:30:50.815Z,38.08
2024-03-02T02:33:52.771Z,45.65
2024-03-02T02:36:54.871Z,43.35
2024-03-02T02:39:57.516Z,44.30
2024-03-02T02:43:00.127Z,44.00
2024-03-02T02:46:02.034Z,45.15
2024-03-02T02:49:04.897Z,38.53
2024-03-02T02:52:06.626Z,40.80
2024-03-02T02:55:14.258Z,38.78
2024-03-02T02:58:16.395Z,43.42
2024-03-02T03:01:18.721Z,45.70
2024-03-02T03:04:20.421Z,53.40
2024-03-02T03:07:22.653Z,48.22
2024-03-02T03:10:24.330Z,45.03
2024-03-02T03:13:26.043Z,47.00
2024-03-02T03:16:28.286Z,49.50
2024-03-02T03:19:30.004Z,38.65
2024-03-02T03:22:33.597Z,45.80
2024-03-02T03:25:35.231Z,40.10
2024-03-02T03:28:36.917Z,47.35
2024-03-02T03:31:39.176Z,45.38
2024-03-02T03:34:40.905Z,49.10
2024-03-02T03:37:43.649Z,48.03
2024-03-02T03:40:45.308Z,48.88
2024-03-02T03:43:47.444Z,46.78
2024-03-02T03:46:49.160Z,49.60
2024-03-02T03:49:50.797Z,50.80
2024-03-02T03:52:53.506Z,46.30
2024-03-02T03:55:55.147Z,40.55
2024-03-02T03:58:57.732Z,45.25
2024-03-02T04:02:00.045Z,47.13
2024-03-02T04:05:01.685Z,51.83
2024-03-02T04:08:04.655Z,46.85
2024-03-02T04:11:06.928Z,47.60
2024-03-02T04:14:08.603Z,48.88
2024-03-02T04:17:11.425Z,56.10
2024-03-02T04:20:13.196Z,55.97
2024-03-02T04:23:15.310Z,51.13
2024-03-02T04:26:17.539Z,47.00
2024-03-02T04:29:19.236Z,50.85
2024-03-02T04:32:22.062Z,46.20
2024-03-02T04:35:23.750Z,47.50
2024-03-02T04:38:25.825Z,50.53
2024-03-02T04:41:27.505Z,53.55
2024-03-02T04:44:29.124Z,49.95
2024-03-02T04:47:31.268Z,52.88
2024-03-02T04:50:33.000Z,63.42
2024-03-02T04:53:35.085Z,53.78
2024-03-02T04:56:36.810Z,54.55
2024-03-02T04:59:38.434Z,63.72
2024-03-02T05:02:41.096Z,60.35
2024-03-02T05:05:43.117Z,61.97
2024-03-02T05:08:44.740Z,63.83
2024-03-02T05:11:46.910Z,56.90
2024-03-02T05:14:48.556Z,63.20
2024-03-02T05:17:51.313Z,65.35
2024-03-02T05:20:53.622Z,62.35
2024-03-02T05:23:55.261Z,55.85
2024-03-02T05:26:58.018Z,56.92
2024-03-02T05:30:01.002Z,53.53
2024-03-02T05:33:02.791Z,54.30
2024-03-02T05:36:05.845Z,53.75
2024-03-02T05:39:07.477Z,59.25
2024-03-02T05:42:10.165Z,58.33
2024-03-02T05:45:12.425Z,59.85
2024-03-02T05:48:14.066Z,58.63
2024-03-02T05:51:16.405Z,57.40
2024-03-02T05:54:18.717Z,63.40
2024-03-02T05:57:21.007Z,55.40
2024-03-02T06:00:23.263Z,52.78
2024-03-02T06:03:24.901Z,56.88
2024-03-02T06:06:27.678Z,51.22
2024-03-02T06:09:29.937Z,54.72
2024-03-02T06:12:32.574Z,59.42
2024-03-02T06:15:35.355Z,53.28
2024-03-02T06:18:37.126Z,63.15
2024-03-02T06:21:39.458Z,60.90
2024-03-02T06:24:41.621Z,57.33
2024-03-02T06:27:43.280Z,64.50
2024-03-02T06:30:45.086Z,53.13
2024-03-02T06:33:47.017Z,54.15
2024-03-02T06:36:48.799Z,49.13
2024-03-02T06:39:51.122Z,49.55
2024-03-02T06:42:52.870Z,46.90
2024-03-02T06:45:55.103Z,56.17
2024-03-02T06:48:57.018Z,52.70
2024-03-02T06:51:58.857Z,55.92
2024-03-02T06:55:01.741Z,53.55
2024-03-02T06:58:03.590Z,47.78
2024-03-02T07:01:06.433Z,59.22
2024-03-02T07:04:08.178Z,57.92
2024-03-02T07:07:09.909Z,65.60
2024-03-02T07:10:11.859Z,58.70
2024-03-02T07:13:13.561Z,56.08
2024-03-02T07:16:15.410Z,52.33
2024-03-02T07:19:17.126Z,45.20
2024-03-02T07:22:19.031Z,44.30
2024-03-02T07:28:25.582Z,52.20
2024-03-02T07:31:27.433Z,53.05
2024-03-02T07:34:29.447Z,55.40
2024-03-02T07:37:31.165Z,48.67
2024-03-02T07:40:33.146Z,48.13
2024-03-02T07:43:34.895Z,51.17
2024-03-02T07:46:37.069Z,41.55
2024-03-02T07:49:39.310Z,49.65
2024-03-02T07:52:41.289Z,48.35
2024-03-02T07:55:43.268Z,41.88
2024-03-02T07:58:44.897Z,47.83
2024-03-02T08:01:47.044Z,41.28
2024-03-02T08:04:49.118Z,40.58
2024-03-02T08:07:50.799Z,43.80
2024-03-02T08:10:52.792Z,48.10
2024-03-02T08:13:54.619Z,46.97
2024-03-02T08:16:56.714Z,48.25
2024-03-02T08:19:58.977Z,47.08
2024-03-02T08:23:01.052Z,44.05
2024-03-02T08:26:02.899Z,43.45
2024-03-02T08:29:04.799Z,39.83
2024-03-02T08:32:07.227Z,41.30
2024-03-02T08:35:08.992Z,45.83
2024-03-02T08:38:10.854Z,47.95
2024-03-02T08:41:12.529Z,44.20
2024-03-02T08:44:14.798Z,40.85
2024-03-02T08:47:16.706Z,40.53
2024-03-02T08:50:18.663Z,37.80
2024-03-02T08:53:20.657Z,37.17
2024-03-02T08:56:22.339Z,42.45
2024-03-02T08:59:24.367Z,38.90
2024-03-02T09:02:26.105Z,39.17
2024-03-02T09:05:28.028Z,43.60
2024-03-02T09:08:29.717Z,37.47
2024-03-02T09:11:31.838Z,37.30
2024-03-02T09:14:33.731Z,35.25
2024-03-02T09:17:35.478Z,34.67
2024-03-02T09:20:37.303Z,34.47
2024-03-02T09:23:38.960Z,33.88
2024-03-02T09:26:40.642Z,31.05
2024-03-02T09:29:42.637Z,29.02
2024-03-02T09:32:45.034Z,34.95
2024-03-02T09:35:47.900Z,32.40
2024-03-02T09:38:49.772Z,31.45
2024-03-02T09:41:51.807Z,29.08
2024-03-02T09:44:54.025Z,29.20
2024-03-02T09:47:56.273Z,26.73
2024-03-02T09:50:58.123Z,24.15
2024-03-02T09:54:09.781Z,27.27
2024-03-02T09:57:20.010Z,25.77
2024-03-02T10:00:22.074Z,20.85
2024-03-02T10:03:28.850Z,28.13
2024-03-02T10:06:30.724Z,24.08
2024-03-02T10:09:32.456Z,24.60
2024-03-02T10:12:34.515Z,26.35
2024-03-02T10:15:36.953Z,22.05
2024-03-02T10:18:39.014Z,22.45
2024-03-02T10:21:41.578Z,25.35
2024-03-02T10:24:44.940Z,28.83
2024-03-02T10:27:51.395Z,24.60
2024-03-02T10:30:53.802Z,21.88
2024-03-02T10:33:56.431Z,23.67
2024-03-02T10:36:58.813Z,25.80
2024-03-02T10:40:06.276Z,25.52
2024-03-02T10:43:08.990Z,23.08
2024-03-02T10:46:12.231Z,22.98
2024-03-02T10:49:14.409Z,21.73
2024-03-02T10:52:16.119Z,23.35
2024-03-02T10:55:18.391Z,29.85
2024-03-02T10:58:20.660Z,24.70
2024-03-02T11:01:23.146Z,24.52
2024-03-02T11:04:26.372Z,22.40
2024-03-02T11:07:29.328Z,23.55
2024-03-02T11:10:51.424Z,21.30
2024-03-02T11:13:56.498Z,22.67
2024-03-02T11:16:58.981Z,20.70
2024-03-02T11:20:01.454Z,22.13
2024-03-02T11:23:07.761Z,24.70
2024-03-02T11:26:23.021Z,24.45
2024-03-02T11:29:36.716Z,24.02
2024-03-02T11:32:38.741Z,23.23
2024-03-02T11:35:45.423Z,24.33
2024-03-02T11:38:47.775Z,22.67
2024-03-02T11:41:50.148Z,22.15
2024-03-02T11:44:52.275Z,21.45
2024-03-02T11:47:58.782Z,22.27
2024-03-02T11:51:02.436Z,26.40
2024-03-02T11:54:05.251Z,26.20
2024-03-02T11:57:10.300Z,22.85
2024-03-02T12:00:18.848Z,20.83
2024-03-02T12:03:23.279Z,24.20
2024-03-02T12:06:25.242Z,22.08
2024-03-02T12:09:30.677Z,22.73
2024-03-02T12:12:32.482Z,21.77
2024-03-02T12:15:36.569Z,22.50
2024-03-02T12:18:38.329Z,20.95
2024-03-02T12:21:40.513Z,24.70
2024-03-02T12:24:43.455Z,25.00
2024-03-02T12:27:46.246Z,26.23
2024-03-02T12:30:48.009Z,26.35
2024-03-02T12:33:50.211Z,22.30
2024-03-02T12:36:52.004Z,25.60
2024-03-02T12:39:54.268Z,35.53
2024-03-02T12:42:56.100Z,23.80
2024-03-02T12:45:57.994Z,28.70
2024-03-02T12:49:08.181Z,26.55
2024-03-02T12:52:12.675Z,22.65
2024-03-02T12:55:14.526Z,20.52
2024-03-02T12:58:24.213Z,22.95
2024-03-02T13:04:29.470Z,22.85
2024-03-02T13:10:33.946Z,20.33
2024-03-02T13:13:35.680Z,20.90
2024-03-02T13:16:47.116Z,21.10
2024-03-02T13:20:00.428Z,20.15
2024-03-02T13:23:02.308Z,18.40
2024-03-02T13:26:04.313Z,19.92
2024-03-02T13:29:06.328Z,18.70
2024-03-02T13:32:08.135Z,18.02
2024-03-02T13:35:09.851Z,15.95
2024-03-02T13:38:11.571Z,16.73
2024-03-02T13:41:13.438Z,17.27
2024-03-02T13:44:15.462Z,16.63
2024-03-02T13:47:17.512Z,18.52
2024-03-02T13:50:19.802Z,16.10
2024-03-02T13:53:22.024Z,15.75
2024-03-02T13:56:23.706Z,15.88
2024-03-02T13:59:26.271Z,17.73
2024-03-02T14:02:27.973Z,15.45
2024-03-02T14:05:30.129Z,19.05
2024-03-02T14:08:32.499Z,15.38
2024-03-02T14:11:34.567Z,16.70
2024-03-02T14:14:36.343Z,14.60
2024-03-02T14:17:38.276Z,15.95
2024-03-02T14:20:41.060Z,15.38
2024-03-02T14:23:43.606Z,13.88
2024-03-02T14:26:46.944Z,14.25
2024-03-02T14:29:49.044Z,14.65
2024-03-02T14:32:50.781Z,34.13
2024-03-02T14:35:52.736Z,12.90
2024-03-02T14:38:54.900Z,12.95
2024-03-02T14:41:56.579Z,13.57
2024-03-02T14:44:58.289Z,11.57
2024-03-02T14:48:00.432Z,13.20
2024-03-02T14:51:02.706Z,14.30
2024-03-02T14:54:04.740Z,12.10
2024-03-02T14:57:06.456Z,12.07
2024-03-02T15:00:08.534Z,13.18
2024-03-02T15:03:10.241Z,11.45
2024-03-02T15:06:11.935Z,15.93
2024-03-02T15:09:13.664Z,12.23
2024-03-02T15:12:15.365Z,12.80
2024-03-02T15:15:17.208Z,10.48
2024-03-02T15:18:19.202Z,10.70
2024-03-02T15:21:21.735Z,13.70
2024-03-02T15:24:24.625Z,14.18
2024-03-02T15:27:26.399Z,11.40
2024-03-02T15:30:28.828Z,12.90
2024-03-02T15:33:31.113Z,11.75
2024-03-02T15:36:33.177Z,11.00
2024-03-02T15:39:35.355Z,11.82
2024-03-02T15:42:37.143Z,12.68
2024-03-02T15:45:39.461Z,12.05
2024-03-02T15:48:41.251Z,9.80
2024-03-02T15:51:43.317Z,10.60
2024-03-02T15:54:46.750Z,8.63
2024-03-02T15:57:48.709Z,11.63
2024-03-02T16:00:50.483Z,12.82
2024-03-02T16:03:53.035Z,12.23
2024-03-02T16:06:54.785Z,12.50
2024-03-02T16:09:57.400Z,12.18
2024-03-02T16:12:59.171Z,10.93
2024-03-02T16:16:01.003Z,28.90
2024-03-02T16:19:06.137Z,71.95
2024-03-02T16:22:10.590Z,21.00
2024-03-02T16:25:12.715Z,11.80
2024-03-02T16:28:14.494Z,12.90
2024-03-02T16:31:16.748Z,13.02
2024-03-02T16:34:18.484Z,14.68
2024-03-02T16:37:20.241Z,13.02
2024-03-02T16:40:21.938Z,73.93
2024-03-02T16:43:24.257Z,25.40
2024-03-02T16:46:25.919Z,16.88
2024-03-02T16:49:27.595Z,13.35
2024-03-02T16:52:29.401Z,16.77
2024-03-02T16:55:31.111Z,16.13
2024-03-02T16:58:33.403Z,14.30
2024-03-02T17:01:35.935Z,72.70
2024-03-02T17:04:37.852Z,25.92
2024-03-02T17:07:39.889Z,18.52
2024-03-02T17:10:42.156Z,14.35
2024-03-02T17:13:43.841Z,15.27
2024-03-02T17:16:45.793Z,18.63
2024-03-02T17:19:47.507Z,17.65
2024-03-02T17:22:50.398Z,14.25
2024-03-02T17:25:52.551Z,15.50
2024-03-02T17:28:54.181Z,16.17
2024-03-02T17:31:56.413Z,14.52
2024-03-02T17:34:58.071Z,14.35
2024-03-02T17:38:00.229Z,17.02
2024-03-02T17:41:01.899Z,14.23
2024-03-02T17:44:03.604Z,60.97
2024-03-02T17:47:05.485Z,22.17
2024-03-02T17:50:07.510Z,16.90
2024-03-02T17:53:09.752Z,16.73
2024-03-02T17:56:11.699Z,16.95
2024-03-02T17:59:13.429Z,19.27
2024-03-02T18:02:15.162Z,20.02
2024-03-02T18:05:16.985Z,16.30
2024-03-02T18:08:19.169Z,17.30
2024-03-02T18:11:21.601Z,20.90
2024-03-02T18:14:23.258Z,22.92
2024-03-02T18:17:25.358Z,21.38
2024-03-02T18:20:27.166Z,21.70
2024-03-02T18:23:28.815Z,19.80
2024-03-02T18:26:30.577Z,18.27
2024-03-02T18:29:32.212Z,20.20
2024-03-02T18:32:34.407Z,20.98
2024-03-02T18:35:36.069Z,18.33
2024-03-02T18:38:37.724Z,16.40
2024-03-02T18:41:39.393Z,18.30
2024-03-02T18:44:41.035Z,17.95
2024-03-02T18:47:45.528Z,19.33
2024-03-02T18:50:47.545Z,22.67
2024-03-02T18:53:49.451Z,20.35
2024-03-02T18:56:51.383Z,20.83
2024-03-02T18:59:53.061Z,23.45
2024-03-02T19:02:55.290Z,18.60
2024-03-02T19:05:56.970Z,23.25
2024-03-02T19:08:59.232Z,15.50
2024-03-02T19:12:01.509Z,21.00
2024-03-02T19:15:03.469Z,25.52
2024-03-02T19:18:05.609Z,19.88
2024-03-02T19:21:07.666Z,16.17
2024-03-02T19:24:09.346Z,17.77
2024-03-02T19:27:11.955Z,16.42
2024-03-02T19:30:13.859Z,19.95
2024-03-02T19:33:16.023Z,19.38
2024-03-02T19:36:18.161Z,16.92
2024-03-02T19:39:19.797Z,22.13
2024-03-02T19:42:22.118Z,19.77
2024-03-02T19:45:23.892Z,19.05
2024-03-02T19:48:26.116Z,21.60
2024-03-02T19:51:27.834Z,19.30
2024-03-02T19:54:29.485Z,18.38
2024-03-02T19:57:31.774Z,22.25
2024-03-02T20:00:34.089Z,22.95
2024-03-02T20:03:35.844Z,20.42
2024-03-02T20:06:38.336Z,20.88
2024-03-02T20:09:40.024Z,22.08
2024-03-02T20:12:42.170Z,14.85
2024-03-02T20:15:43.900Z,18.83
2024-03-02T20:18:45.592Z,16.98
2024-03-02T20:21:47.311Z,21.92
2024-03-02T20:24:49.053Z,23.35
2024-03-02T20:27:50.785Z,28.17
2024-03-02T20:30:52.499Z,27.20
2024-03-02T20:33:54.193Z,28.88
2024-03-02T20:36:56.727Z,26.15
2024-03-02T20:39:58.486Z,23.88
2024-03-02T20:43:03.789Z,29.25
2024-03-02T20:46:05.517Z,30.65
2024-03-02T20:49:07.367Z,29.25
2024-03-02T20:52:10.795Z,33.30
2024-03-02T20:55:12.703Z,29.55
2024-03-02T20:58:15.007Z,29.77
2024-03-02T21:01:17.271Z,29.85
2024-03-02T21:04:19.036Z,29.38
2024-03-02T21:07:21.428Z,30.48
2024-03-02T21:10:23.218Z,29.65
2024-03-02T21:13:25.514Z,33.05
2024-03-02T21:16:27.244Z,32.42
2024-03-02T21:19:28.979Z,34.13
2024-03-02T21:22:31.399Z,31.17
2024-03-02T21:25:33.704Z,28.92
2024-03-02T21:28:35.341Z,31.10
2024-03-02T21:31:37.680Z,31.65
2024-03-02T21:34:41.169Z,23.02
2024-03-02T21:37:43.456Z,31.65
2024-03-02T21:40:45.111Z,31.88
2024-03-02T21:43:46.749Z,30.08
2024-03-02T21:46:48.418Z,33.67
2024-03-02T21:49:50.614Z,29.02
2024-03-02T21:52:52.257Z,32.38
2024-03-02T21:55:53.949Z,34.22
2024-03-02T21:58:55.599Z,34.55
2024-03-02T22:01:58.397Z,40.35
2024-03-02T22:05:00.701Z,30.45
2024-03-02T22:08:02.434Z,32.30
2024-03-02T22:11:04.290Z,34.88
2024-03-02T22:14:06.065Z,29.92
2024-03-02T22:17:07.740Z,30.13
2024-03-02T22:20:10.113Z,30.67
2024-03-02T22:23:11.792Z,36.88
2024-03-02T22:26:13.798Z,27.55
2024-03-02T22:29:15.886Z,28.67
2024-03-02T22:32:17.522Z,27.60
2024-03-02T22:35:22.521Z,25.35
2024-03-02T22:38:25.470Z,24.45
2024-03-02T22:41:27.413Z,28.40
2024-03-02T22:44:29.537Z,31.13
2024-03-02T22:47:31.276Z,26.55
2024-03-02T22:50:32.971Z,31.40
2024-03-02T22:53:34.799Z,26.10
2024-03-02T22:56:36.462Z,27.58
2024-03-02T22:59:38.558Z,29.88
2024-03-02T23:02:40.209Z,26.60
2024-03-02T23:05:42.928Z,29.38
2024-03-02T23:08:44.590Z,25.10
2024-03-02T23:11:46.220Z,25.52
2024-03-02T23:14:47.909Z,26.02
2024-03-02T23:17:49.588Z,25.83
2024-03-02T23:20:51.461Z,26.73
2024-03-02T23:23:53.587Z,22.02
2024-03-02T23:26:55.276Z,25.95
2024-03-02T23:29:56.948Z,26.65
2024-03-02T23:32:59.565Z,23.80
2024-03-02T23:36:01.232Z,22.15
2024-03-02T23:39:02.926Z,22.90
2024-03-02T23:42:04.673Z,21.55
2024-03-02T23:45:07.705Z,22.45
2024-03-02T23:48:10.389Z,23.33
2024-03-02T23:51:12.022Z,21.15
2024-03-02T23:54:14.307Z,19.70
2024-03-02T23:57:15.990Z,17.67
